Sonic Adventure (DX): Overall Rankings

Records: Times | Rings | Scores | Races | Bosses | Freestyle
Leaders: Times | Rings | Scores | Races | Bosses | Freestyle | Overall
Rank Player Percent Points Date Grade
1 Sonicspeedruner 97.9% 354 10-13-18 S
2 Gamepro011 97.9% 367 10-13-18 A
3 DarkPolarNight 96.6% 582 10-13-18 A
4 Jawzun 93.0% 1212 10-13-18 A
5 Dashjump 91.6% 1472 10-13-18 A
6 DarkspinesSonic 89.7% 1803 10-13-18 A
7 Avento128bits 89.5% 1838 10-13-18 A
8 ike6252 89.3% 1874 10-13-18 A
9 F-Man 87.5% 2187 10-13-18 A
10 Coolfansonic 87.0% 2263 10-13-18 A
11 HyperSonic7701 84.1% 2776 10-13-18 A
12 TheRealShadnic 83.8% 2826 10-13-18 A
13 yoshifan 82.4% 3072 10-13-18 A
14 frankoredstrato 82.0% 3139 10-13-18 A
15 francisco 81.1% 3301 10-13-18 A
16 Marth 80.9% 3330 10-13-18 A
17 InferSaime 79.6% 3566 10-13-18 B
18 PfoSonic 79.2% 3643 10-13-18 B
19 Paragod 78.7% 3717 10-13-18 B
20 THC98 77.9% 3860 10-13-18 B
21 Stefan 75.5% 4290 10-13-18 B
22 RPGnutter 73.4% 4653 10-13-18 B
23 bertin 73.3% 4678 10-13-18 B
24 sonicam 71.1% 5052 10-13-18 B
25 Dekuboy 70.2% 5212 10-13-18 B
26 drminus 69.9% 5267 10-13-18 B
27 chainchumper 65.8% 5983 10-13-18 B
28 xXMegaManXx 65.6% 6016 10-13-18 B
29 Combo 65.2% 6089 10-13-18 B
30 chaos shadow 64.6% 6196 10-13-18 B
31 SkyLights 64.0% 6292 10-13-18 B
32 Diamond 62.0% 6649 10-13-18 B
33 Auriman1 59.8% 7028 10-13-18 C
34 GerbilSoft 59.8% 7033 10-13-18 C
35 OmegaDJ 59.8% 7034 10-13-18 C
36 magnum12 59.0% 7174 10-13-18 C
37 Thorn 56.8% 7554 10-13-18 C
38 P1 Pause 56.7% 7588 10-13-18 C
39 mike89 55.6% 7765 10-13-18 C
40 Dave Cramer 53.7% 8110 10-13-18 C
41 Groudon199 53.6% 8119 10-13-18 C
42 Parax 53.1% 8210 10-13-18 C
43 Shadow Jacky 52.5% 8319 10-13-18 C
44 Psymar 47.5% 9188 10-13-18 C
45 Arch 46.6% 9350 10-13-18 C
46 Chao_Fan 45.7% 9503 10-13-18 C
47 mauserman 45.0% 9633 10-13-18 C
48 Quartz 44.6% 9696 10-13-18 C
49 teamblackarms 43.8% 9833 10-13-18 C
50 Calfd 43.4% 9915 10-13-18 C
51 Psyknux 43.1% 9956 10-13-18 C
52 James_Bertolli 42.9% 10002 10-13-18 C
53 Cyan Ryan 42.7% 10041 10-13-18 C
54 NintenDan 42.4% 10081 10-13-18 C
55 Webber3000 41.8% 10188 10-13-18 C
56 Turbos 41.7% 10202 10-13-18 C
57 Ring Rush 41.6% 10229 10-13-18 C
58 Cream147 41.3% 10277 10-13-18 C
59 Fr3nZy 41.3% 10286 10-13-18 C
60 videogamemaster777 41.2% 10292 10-13-18 C
61 Siavash Tazari 41.0% 10335 10-13-18 C
62 buddychaos0415 40.4% 10428 10-13-18 C
63 SadisticMystic 40.0% 10511 10-13-18 C
64 ethmar 39.8% 10549 10-13-18 D
65 eggFL 39.1% 10660 10-13-18 D
66 SB737 37.6% 10927 10-13-18 D
67 supersonic465 37.0% 11027 10-13-18 D
68 supersonicfan 36.4% 11136 10-13-18 D
69 FuzZerd 35.3% 11324 10-13-18 D
70 Aitamen 34.8% 11409 10-13-18 D
71 elecmouse101 34.4% 11486 10-13-18 D
72 BigAL49 34.4% 11495 10-13-18 D
73 danieldude 34.3% 11503 10-13-18 D
74 Austinf 33.6% 11620 10-13-18 D
75 metanightmare22 33.2% 11704 10-13-18 D
76 dabestgamer 32.7% 11780 10-13-18 D
77 MiStEr_ShAoLiN 32.6% 11801 10-13-18 D
78 Andrea Ritsu 31.9% 11929 10-13-18 D
79 itsPersonnal 31.6% 11975 10-13-18 D
80 Cybrax 31.0% 12091 10-13-18 D
81 JamminX42 30.7% 12136 10-13-18 D
82 Nim 30.7% 12142 10-13-18 D
83 SilvertheAlmighty 30.5% 12163 10-13-18 D
84 Mastakirby 30.3% 12203 10-13-18 D
85 VMU Player Banned 28.9% 12449 10-13-18 D
86 Omega Rafael Santos 28.4% 12532 10-13-18 D
87 Staf 28.2% 12567 10-13-18 D
88 The T 27.9% 12624 10-13-18 D
89 EngiNerd 27.6% 12673 10-13-18 D
90 lordmetalsonic 27.1% 12761 10-13-18 D
91 Hipertails12 26.9% 12810 10-13-18 D
92 welldooder64 26.6% 12848 10-13-18 D
93 GreatStar 26.4% 12891 10-13-18 D
94 Niczur 26.2% 12917 10-13-18 D
95 The Great Lord Mick 26.2% 12920 10-13-18 D
96 Sondow 26.2% 12926 10-13-18 D
97 LinksDarkArrows 25.9% 12980 10-13-18 D
98 Skylace 25.1% 13125 10-13-18 D
99 a_moustache 24.1% 13288 10-13-18 D
100 Rolken 23.5% 13393 10-13-18 D
101 Xia 21.9% 13677 10-13-18 D
102 Spinballwizard 21.9% 13687 10-13-18 D
103 Kogen Player Banned 21.8% 13690 10-13-18 D
104 Twilisailor 21.4% 13762 10-13-18 D
105 f0rever_zer0 21.3% 13777 10-13-18 D
106 Don 21.3% 13783 10-13-18 D
107 Cutiefox 21.2% 13800 10-13-18 D
108 Game_Complete 21.2% 13801 10-13-18 D
109 Miles9999 21.1% 13825 10-13-18 D
110 andres430 20.5% 13921 10-13-18 D
111 Cruizer 20.3% 13950 10-13-18 D
112 iSonicKid2K 20.2% 13974 10-13-18 D
113 SADXTryHard 20.0% 14008 10-13-18 D
114 GarnetPrincess 19.5% 14097 10-13-18 E
115 N 19.3% 14132 10-13-18 E
116 AxlThunder 19.0% 14191 10-13-18 E
117 knuckles_sonic8 18.5% 14280 10-13-18 E
118 KinkyCadence 18.2% 14333 10-13-18 E
119 The Knuckles Chao 18.1% 14341 10-13-18 E
120 Termon 17.8% 14395 10-13-18 E
121 Team_Yoshi 17.8% 14398 10-13-18 E
122 LittleBigness 17.7% 14413 10-13-18 E
123 SonicWinDX 17.6% 14434 10-13-18 E
124 FoxBoy 17.5% 14456 10-13-18 E
125 CoEmpathy 17.3% 14483 10-13-18 E
126 Drakodan 16.8% 14569 10-13-18 E
127 Sonic Singularity 15.8% 14744 10-13-18 E
128 Pokemonmaster888 15.5% 14798 10-13-18 E
129 paulie9990 15.1% 14864 10-13-18 E
130 SilverSonic 14.5% 14974 10-13-18 E
131 MPit08 14.4% 14998 10-13-18 E
132 WeegeeZV 14.2% 15033 10-13-18 E
133 koinu93 14.0% 15059 10-13-18 E
134 Mo Player Banned 14.0% 15061 10-13-18 E
135 Cod4Scopes 13.6% 15141 10-13-18 E
136 HyperSonic64 13.5% 15144 10-13-18 E
137 booo95 13.4% 15173 10-13-18 E
138 Chawkk 13.4% 15176 10-13-18 E
139 Jerzia 13.3% 15183 10-13-18 E
140 Hunters13 13.1% 15223 10-13-18 E
141 SuperSonic101 13.0% 15241 10-13-18 E
142 Maxinfamily 12.9% 15252 10-13-18 E
143 Kanimayo_Jp 12.6% 15315 10-13-18 E
144 LilZero 12.5% 15328 10-13-18 E
145 BrokenArthritis 12.4% 15344 10-13-18 E
146 Flying Fox 12.3% 15353 10-13-18 E
146 PsyBorg 12.3% 15353 10-13-18 E
148 Therio 12.0% 15417 10-13-18 E
149 sonicspeed 11.8% 15450 10-13-18 E
150 douglas 11.7% 15464 10-13-18 E
151 thewaytodawnnn 11.3% 15531 10-13-18 E
152 Matt_TY 11.3% 15536 10-13-18 E
153 ModifiedMonkee 11.2% 15561 10-13-18 E
154 Cooljay 10.8% 15623 10-13-18 E
155 SuperBlitzCraig 10.7% 15646 10-13-18 E
156 joecoolgames 10.6% 15653 10-13-18 E
157 SeaWolf 10.6% 15667 10-13-18 E
158 videogamer1014 10.4% 15698 10-13-18 E
159 AC-Tygo 10.1% 15741 10-13-18 E
160 welshmoose05 10.1% 15748 10-13-18 E
161 crazy1993 9.9% 15783 10-13-18 E
162 OddCook 9.9% 15789 10-13-18 E
163 TFEC Headshot 9.8% 15804 10-13-18 E
164 Mcshuggets 9.6% 15827 10-13-18 E
165 niscool 9.4% 15868 10-13-18 E
166 Mariobutch 9.4% 15874 10-13-18 E
167 Irregular Zero 9.2% 15897 10-13-18 E
168 nuckrieg 9.2% 15900 10-13-18 E
169 SonicAD 9.1% 15925 10-13-18 E
170 Shadowthegreat 8.9% 15950 10-13-18 E
171 superjupi 8.9% 15952 10-13-18 E
172 SirTobbii 8.9% 15958 10-13-18 E
173 sonamyfan666 8.6% 16004 10-13-18 E
174 iarebored 8.6% 16011 10-13-18 E
175 Powerjohn25 8.6% 16013 10-13-18 E
176 SaviourDC 8.5% 16018 10-13-18 E
177 SonicKnuckles 8.5% 16024 10-13-18 E
178 Werey 8.2% 16076 10-13-18 E
179 adf 8.1% 16088 10-13-18 E
180 Megaman EXE565 7.9% 16132 10-13-18 E
181 ArcticDragon 7.6% 16191 10-13-18 E
182 Platformer 7.5% 16198 10-13-18 E
183 timpkmn89 7.4% 16214 10-13-18 E
184 wheatrich 7.3% 16230 10-13-18 E
185 FocusSight64 7.3% 16238 10-13-18 E
186 Swift Hobo 7.3% 16239 10-13-18 E
187 Rickyman48 7.1% 16278 10-13-18 E
188 KitsuneYamaro 7.0% 16296 10-13-18 E
189 Triseena 6.8% 16317 10-13-18 E
190 Sm4sh 6.8% 16329 10-13-18 E
191 Destroyer121121 6.5% 16369 10-13-18 E
192 dShadow 6.5% 16378 10-13-18 E
193 CyberShadow 6.5% 16382 10-13-18 E
193 Starlight Sable 6.5% 16382 10-13-18 E
195 slade23 6.4% 16389 10-13-18 E
196 IsisDazs 6.3% 16415 10-13-18 E
197 BlankTH 6.1% 16452 10-13-18 E
198 Monkeh 6.0% 16460 10-13-18 E
199 Redd 5.9% 16475 10-13-18 E
200 Badlex727 5.9% 16480 10-13-18 E
201 SonicU260 5.8% 16495 10-13-18 E
202 Richied 5.7% 16510 10-13-18 E
203 Swinkly 5.7% 16526 10-13-18 E
204 DaDude 5.6% 16529 10-13-18 E
205 Crispian 5.6% 16531 10-13-18 E
206 Vicklaw 5.6% 16536 10-13-18 E
207 sonicd5 5.6% 16542 10-13-18 E
208 Zip 5.5% 16548 10-13-18 E
209 VeritasDL 5.2% 16600 10-13-18 E
210 ALundstrom10 5.2% 16612 10-13-18 E
211 tal39h 5.1% 16616 10-13-18 E
212 Kirbymon30 5.1% 16625 10-13-18 E
213 soniccoloursunleashed 4.9% 16650 10-13-18 E
214 Drflash55 4.9% 16664 10-13-18 E
215 Bass 4.8% 16668 10-13-18 E
216 neaolas 4.7% 16692 10-13-18 E
217 superiorsonic 4.7% 16694 10-13-18 E
218 Yish 4.6% 16705 10-13-18 E
219 zapp 4.6% 16706 10-13-18 E
220 UninspiredUsername 4.6% 16715 10-13-18 E
221 Sonicsuperstar1 4.5% 16727 10-13-18 E
222 gamefreak1292 4.5% 16736 10-13-18 E
223 Sora_yx 4.3% 16764 10-13-18 E
224 Chaos_Overlord 4.1% 16794 10-13-18 E
225 TakaRikka 4.0% 16813 10-13-18 E
226 Valfore 4.0% 16817 10-13-18 E
227 Dage4Aquatic 3.9% 16840 10-13-18 E
228 ShinigamiMachine 3.8% 16853 10-13-18 E
229 Regano1000 3.7% 16861 10-13-18 E
230 MK 3.7% 16870 10-13-18 E
231 Ace747 3.5% 16895 10-13-18 E
232 Jua Rever 3.4% 16919 10-13-18 E
233 Illidan 3.2% 16962 10-13-18 E
234 HHNNBBHHN 3.1% 16969 10-13-18 E
235 Brian_pso 3.1% 16972 10-13-18 E
235 Venick409 3.1% 16972 10-13-18 E
237 Sithwarrior26 3.1% 16975 10-13-18 E
238 nman36 3.1% 16977 10-13-18 E
239 Egor305 3.0% 16998 10-13-18 E
240 SkyBon 3.0% 16999 10-13-18 E
241 ingx24 2.9% 17004 10-13-18 E
242 R3FR4G 2.9% 17008 10-13-18 E
242 TheChaosEmeraIds 2.9% 17008 10-13-18 E
244 Nickson98 2.9% 17015 10-13-18 E
245 dekki1234 2.9% 17016 10-13-18 E
246 FSSRandomvids 2.8% 17028 10-13-18 E
247 Fozer 2.8% 17031 10-13-18 E
248 Colomb_30 2.7% 17035 10-13-18 E
249 Aiko 2.7% 17046 10-13-18 E
250 sonic29887 2.7% 17047 10-13-18 E
251 TheUltraBlur 2.6% 17057 10-13-18 E
252 1stKirbyever 2.6% 17063 10-13-18 E
253 TimTH 2.5% 17079 10-13-18 E
254 Th4tN1nj4Turtl3 2.4% 17101 10-13-18 E
255 Cort_pso 2.3% 17110 10-13-18 E
256 ieatatsonic 2.3% 17116 10-13-18 E
257 Doom-9 2.2% 17124 10-13-18 E
257 Mariosonic15 2.2% 17124 10-13-18 E
259 Artie 2.1% 17140 10-13-18 E
259 MStitomix 2.1% 17140 10-13-18 E
261 HermitHelmet 2.1% 17145 10-13-18 E
262 SuperSonic71087 2.0% 17163 10-13-18 E
263 Got4n 2.0% 17166 10-13-18 E
264 Questionguy555 1.9% 17175 10-13-18 E
265 Jose_15 1.9% 17176 10-13-18 E
266 djmat 1.9% 17189 10-13-18 E
267 SuperSonicfan9595 1.8% 17196 10-13-18 E
268 sonicandamy Player Banned 1.7% 17211 10-13-18 E
269 Heroes_Hater 1.7% 17215 10-13-18 E
270 LancexExWx 1.7% 17222 10-13-18 E
271 Paixii 1.7% 17223 10-13-18 E
272 son1cgu1tar 1.7% 17226 10-13-18 E
273 Mankster101 1.6% 17241 10-13-18 E
274 BallzeH 1.6% 17242 10-13-18 E
275 BecauseWarAnvil 1.5% 17249 10-13-18 E
276 Jamixesa 1.5% 17254 10-13-18 E
277 SpiritDragon1995 1.5% 17261 10-13-18 E
278 Shanekilz 1.4% 17263 10-13-18 E
279 Crydio 1.4% 17264 10-13-18 E
280 MarewBFN 1.3% 17281 10-13-18 E
281 stanski 1.3% 17283 10-13-18 E
282 Sonique Hedgehog 1.3% 17288 10-13-18 E
283 Blue Infamy 1.2% 17299 10-13-18 E
284 p0ker 1.2% 17301 10-13-18 E
285 ArthurVGCP 1.2% 17303 10-13-18 E
286 ErrortheCucco 1.2% 17310 10-13-18 E
287 Rikum22 1.2% 17313 10-13-18 E
288 Arthas 1.1% 17317 10-13-18 E
289 sonic1001 1.1% 17321 10-13-18 E
290 syco1098 1.1% 17328 10-13-18 E
291 AJSIV 1.1% 17330 10-13-18 E
291 WingedInsignia 1.1% 17330 10-13-18 E
293 Sonic the Hedgehod16 1.0% 17333 10-13-18 E
294 ASINISTERTACO 1.0% 17339 10-13-18 E
295 sonicfan9 1.0% 17346 10-13-18 E
296 BlackArmsShadow 0.9% 17353 10-13-18 E
297 themachoman202 0.9% 17355 10-13-18 E
298 darkstarblaze 0.9% 17358 10-13-18 E
299 shadowblast63 Player Banned 0.9% 17361 10-13-18 E
300 Fivavoa 0.9% 17364 10-13-18 E
300 MastaToken 0.9% 17364 10-13-18 E
302 Greham Adelphis 0.9% 17366 10-13-18 E
302 Mr. Jones 0.9% 17366 10-13-18 E
304 Ben1502 0.8% 17368 10-13-18 E
305 arcfx1985 0.8% 17369 10-13-18 E
306 TommyeAsY 0.8% 17371 10-13-18 E
307 ptorflaxendrosis 0.8% 17372 10-13-18 E
308 Gvozdevik 0.8% 17376 10-13-18 E
308 Knuckles 0.8% 17376 10-13-18 E
310 FlandreScarlet9999vr 0.8% 17377 10-13-18 E
311 Zeldocto 0.8% 17379 10-13-18 E
312 KaM Mark MaK 0.8% 17383 10-13-18 E
313 BeeAwwb 0.7% 17385 10-13-18 E
314 ShadouZaHejjihoggu 0.7% 17390 10-13-18 E
315 Sarger001 0.7% 17395 10-13-18 E
316 Sonic The Star 0.7% 17398 10-13-18 E
317 darkersupershadic 0.7% 17399 10-13-18 E
317 dragondragon18 0.7% 17399 10-13-18 E
317 Sogeking 0.7% 17399 10-13-18 E
317 Sonic62 0.7% 17399 10-13-18 E
321 Shadygamerfreak 0.6% 17406 10-13-18 E
322 Grady219 0.6% 17407 10-13-18 E
322 SonicK100 0.6% 17407 10-13-18 E
324 BioShadow 0.6% 17408 10-13-18 E
325 Jawaah 0.6% 17413 10-13-18 E
326 Antek 0.6% 17416 10-13-18 E
327 Klaus 0.6% 17418 10-13-18 E
327 SilverK 0.6% 17418 10-13-18 E
329 SpinDashMaster 0.5% 17421 10-13-18 E
330 Videogamer123 0.5% 17428 10-13-18 E
331 oTaiIilLsS 0.4% 17443 10-13-18 E
332 isaihtb11 0.4% 17445 10-13-18 E
333 zaktu40 0.4% 17446 10-13-18 E
334 OhNoes! 0.4% 17447 10-13-18 E
335 gaara1234 0.4% 17449 10-13-18 E
335 Mad Andy 0.4% 17449 10-13-18 E
337 S-MS32X-S 0.4% 17451 10-13-18 E
338 gamed00d 0.4% 17452 10-13-18 E
339 Mister_Slick 0.3% 17463 10-13-18 E
340 Rush Hero 0.3% 17466 10-13-18 E
340 Sonic06Fan 0.3% 17466 10-13-18 E
342 ChaosNexuss 0.3% 17467 10-13-18 E
343 SonicMega167 0.3% 17472 10-13-18 E
344 Iwannabelink 0.2% 17473 10-13-18 E
345 sonknuck23 0.2% 17477 10-13-18 E
346 gamer1245 0.2% 17486 10-13-18 E
347 DanielTheFalcon 0.2% 17487 10-13-18 E
348 Burningskull123 0.1% 17491 10-13-18 E
349 Sonicontherun 0.1% 17502 10-13-18 E
350 Lil_Dude 0.1% 17507 10-13-18 E
351 antiwwe 0.0% 17508 10-13-18 E
352 Tyrouble 0.0% 17510 10-13-18 E
353 Genuine Hedgehog 0.0% 17511 10-13-18 E
353 SonataSpinDash 0.0% 17511 10-13-18 E
355 Cbwade15 0.0% 17514 10-13-18 E
356 MegabombBlade 0.0% 17525 10-13-18 E
356 neji_hyuuga 0.0% 17525 10-13-18 E
356 Over 0.0% 17525 10-13-18 E
356 sdj6707 Player Banned 0.0% 17525 10-13-18 E
356 Tran Sonic Fan Player Banned 0.0% 17525 10-13-18 E

This page is using the New Data Table System. [FUTURE]


-- Back to Normal Skin --
Game ID: 3 | Category ID: 10
Hits: 73,491 | Hits This Month: 90 | DB Calls: 16 | Mem Usage: 5.66 MB | Time: 0.22s | Printable

The Sonic Center v3.9
Copyright 2003-2011 by The Sonic Center Team.